Terminal Aerodrome Forecast
Issued by NWS Blacksburg, VA

Current Version | Previous Version | Text Only | Print | Product List | Glossary Off
Versions: 1 2 3 4 5 6 7 8 9 10 11 12 13 14 15 16 17 18 19 20 21 22 23 24 25 26 27 28 29 30 31 32 33 34 35 36 37 38

000
FTUS41 KRNK 261019 AAA
TAFBLF
TAF AMD
KBLF 261019Z 2610/2706 12003KT P6SM SCT009
      TEMPO 2610/2614 BKN009
     FM261800 21007KT P6SM VCSH BKN035 OVC060
     FM262100 24009KT 4SM TSRA OVC025CB
     FM270000 26006KT 5SM -SHRA BR OVC015
     FM270300 27004KT 1SM BR OVC004=

USA.gov is the U.S. government's official web portal to all federal, state and local government web resources and services.